createdAt,value
2022-11-23T00:00:40.984Z,977.39
2022-11-23T00:01:40.974Z,977.35
2022-11-23T00:02:40.998Z,977.29
2022-11-23T00:03:41.002Z,977.28
2022-11-23T00:04:40.970Z,977.39
2022-11-23T00:05:40.968Z,977.35
2022-11-23T00:06:40.973Z,977.36
2022-11-23T00:07:41.088Z,977.36
2022-11-23T00:08:40.980Z,977.33
2022-11-23T00:09:40.975Z,977.38
2022-11-23T00:10:40.989Z,977.32
2022-11-23T00:11:41.016Z,977.33
2022-11-23T00:12:40.987Z,977.34
2022-11-23T00:13:41.005Z,977.33
2022-11-23T00:14:41.039Z,977.32
2022-11-23T00:15:40.988Z,977.39
2022-11-23T00:16:41.025Z,977.33
2022-11-23T00:17:41.026Z,977.33
2022-11-23T00:18:41.042Z,977.23
2022-11-23T00:19:41.065Z,977.39
2022-11-23T00:20:41.058Z,977.33
2022-11-23T00:21:41.073Z,977.37
2022-11-23T00:22:41.076Z,977.33
2022-11-23T00:23:41.097Z,977.30
2022-11-23T00:24:41.225Z,977.37
2022-11-23T00:25:41.113Z,977.25
2022-11-23T00:26:41.125Z,977.26
2022-11-23T00:27:41.149Z,977.25
2022-11-23T00:28:41.171Z,977.26
2022-11-23T00:29:41.172Z,977.33
2022-11-23T00:30:41.282Z,977.33
2022-11-23T00:31:41.202Z,977.32
2022-11-23T00:32:41.193Z,977.31
2022-11-23T00:33:41.212Z,977.30
2022-11-23T00:34:41.246Z,977.31
2022-11-23T00:35:41.238Z,977.33
2022-11-23T00:36:41.246Z,977.25
2022-11-23T00:37:41.254Z,977.35
2022-11-23T00:38:41.276Z,977.32
2022-11-23T00:39:41.293Z,977.34
2022-11-23T00:40:41.284Z,977.34
2022-11-23T00:41:41.321Z,977.31
2022-11-23T00:42:41.326Z,977.34
2022-11-23T00:43:41.333Z,977.39
2022-11-23T00:44:41.371Z,977.38
2022-11-23T00:45:41.360Z,977.44
2022-11-23T00:46:41.373Z,977.44
2022-11-23T00:47:41.385Z,977.40
2022-11-23T00:48:41.388Z,977.34
2022-11-23T00:49:41.387Z,977.39
2022-11-23T00:50:41.430Z,977.32
2022-11-23T00:51:41.431Z,977.35
2022-11-23T00:52:41.449Z,977.35
2022-11-23T00:53:41.460Z,977.33
2022-11-23T00:54:41.488Z,977.34
2022-11-23T00:55:41.484Z,977.36
2022-11-23T00:56:41.507Z,977.24
2022-11-23T00:57:41.515Z,977.29
2022-11-23T00:58:41.512Z,977.28
2022-11-23T00:59:41.518Z,977.31
2022-11-23T01:00:41.532Z,977.24
2022-11-23T01:01:41.570Z,977.22
2022-11-23T01:02:41.558Z,977.33
2022-11-23T01:03:41.579Z,977.27
2022-11-23T01:04:41.621Z,977.38
2022-11-23T01:05:41.604Z,977.42
2022-11-23T01:06:41.625Z,977.37
2022-11-23T01:07:41.690Z,977.39
2022-11-23T01:08:41.647Z,977.39
2022-11-23T01:09:41.651Z,977.39
2022-11-23T01:10:41.679Z,977.39
2022-11-23T01:11:41.659Z,977.36
2022-11-23T01:12:41.721Z,977.45
2022-11-23T01:13:41.678Z,977.35
2022-11-23T01:14:41.712Z,977.40
2022-11-23T01:15:41.727Z,977.43
2022-11-23T01:16:41.738Z,977.45
2022-11-23T01:17:41.742Z,977.56
2022-11-23T01:18:41.750Z,977.41
2022-11-23T01:19:41.764Z,977.42
2022-11-23T01:20:41.782Z,977.48
2022-11-23T01:21:41.811Z,977.45
2022-11-23T01:22:41.797Z,977.59
2022-11-23T01:23:41.821Z,977.51
2022-11-23T01:24:41.838Z,977.55
2022-11-23T01:25:41.859Z,977.59
2022-11-23T01:26:41.858Z,977.65
2022-11-23T01:27:41.889Z,977.57
2022-11-23T01:28:41.860Z,977.47
2022-11-23T01:29:41.885Z,977.63
2022-11-23T01:30:41.913Z,977.60
2022-11-23T01:31:46.085Z,977.67
2022-11-23T01:32:41.925Z,977.61
2022-11-23T01:33:41.895Z,977.61
2022-11-23T01:34:41.890Z,977.60
2022-11-23T01:35:41.909Z,977.56
2022-11-23T01:36:41.957Z,977.65
2022-11-23T01:38:02.515Z,977.67
2022-11-23T01:39:02.505Z,977.58
2022-11-23T01:40:02.483Z,977.69
2022-11-23T01:41:02.508Z,977.66
2022-11-23T01:42:02.533Z,977.72
2022-11-23T01:43:02.511Z,977.63
2022-11-23T01:44:02.531Z,977.71
2022-11-23T01:45:02.520Z,977.76
2022-11-23T01:46:02.539Z,977.74
2022-11-23T01:47:02.529Z,977.71
2022-11-23T01:48:02.525Z,977.76
2022-11-23T01:49:02.514Z,977.69
2022-11-23T01:50:02.527Z,977.63
2022-11-23T01:51:02.551Z,977.69
2022-11-23T01:52:02.508Z,977.78
2022-11-23T01:53:02.521Z,977.67
2022-11-23T01:54:02.535Z,977.79
2022-11-23T01:55:08.115Z,977.79
2022-11-23T01:56:02.531Z,977.80
2022-11-23T01:57:02.538Z,977.81
2022-11-23T01:58:02.528Z,977.73
2022-11-23T01:59:02.539Z,977.81
2022-11-23T02:00:02.522Z,977.87
2022-11-23T02:01:02.567Z,977.78
2022-11-23T02:02:02.520Z,977.88
2022-11-23T02:03:02.525Z,977.87
2022-11-23T02:04:02.550Z,977.81
2022-11-23T02:05:02.527Z,977.84
2022-11-23T02:06:02.555Z,977.87
2022-11-23T02:07:02.527Z,977.83
2022-11-23T02:08:02.533Z,977.88
2022-11-23T02:09:02.563Z,977.82
2022-11-23T02:10:02.537Z,977.89
2022-11-23T02:11:02.537Z,977.85
2022-11-23T02:12:02.550Z,977.81
2022-11-23T02:13:02.541Z,977.70
2022-11-23T02:14:02.695Z,977.79
2022-11-23T02:15:02.706Z,977.75
2022-11-23T02:16:02.694Z,977.80
2022-11-23T02:17:02.700Z,977.77
2022-11-23T02:18:02.731Z,977.78
2022-11-23T02:19:02.727Z,977.84
2022-11-23T02:20:02.743Z,977.80
2022-11-23T02:21:02.769Z,977.78
2022-11-23T02:22:02.776Z,977.67
2022-11-23T02:23:02.772Z,977.80
2022-11-23T02:24:02.756Z,977.74
2022-11-23T02:25:02.799Z,977.73
2022-11-23T02:26:02.841Z,977.79
2022-11-23T02:27:02.845Z,977.81
2022-11-23T02:28:02.849Z,977.63
2022-11-23T02:29:02.896Z,977.75
2022-11-23T02:30:02.855Z,977.77
2022-11-23T02:31:02.900Z,977.83
2022-11-23T02:32:02.889Z,977.76
2022-11-23T02:33:02.904Z,977.73
2022-11-23T02:34:02.930Z,977.76
2022-11-23T02:35:02.935Z,977.76
2022-11-23T02:36:02.964Z,977.75
2022-11-23T02:37:02.980Z,977.76
2022-11-23T02:38:02.944Z,977.83
2022-11-23T02:39:03.017Z,977.70
2022-11-23T02:40:03.018Z,977.72
2022-11-23T02:41:03.004Z,977.77
2022-11-23T02:42:03.013Z,977.73
2022-11-23T02:43:03.001Z,977.72
2022-11-23T02:44:03.048Z,977.76
2022-11-23T02:45:03.047Z,977.73
2022-11-23T02:46:03.046Z,977.59
2022-11-23T02:47:03.134Z,977.67
2022-11-23T02:48:03.079Z,977.62
2022-11-23T02:49:03.084Z,977.66
2022-11-23T02:50:03.113Z,977.78
2022-11-23T02:51:03.096Z,977.75
2022-11-23T02:52:03.127Z,977.78
2022-11-23T02:53:03.136Z,977.77
2022-11-23T02:54:03.155Z,977.81
2022-11-23T02:55:03.173Z,977.75
2022-11-23T02:56:03.208Z,977.78
2022-11-23T02:57:03.209Z,977.69
2022-11-23T02:58:03.201Z,977.74
2022-11-23T02:59:03.208Z,977.64
2022-11-23T03:00:03.230Z,977.64
2022-11-23T03:01:03.376Z,977.64
2022-11-23T03:02:03.286Z,977.74
2022-11-23T03:03:03.283Z,977.65
2022-11-23T03:04:03.283Z,977.62
2022-11-23T03:05:03.282Z,977.65
2022-11-23T03:06:03.283Z,977.66
2022-11-23T03:07:03.321Z,977.65
2022-11-23T03:08:03.329Z,977.65
2022-11-23T03:09:03.342Z,977.66
2022-11-23T03:10:03.318Z,977.76
2022-11-23T03:11:03.370Z,977.66
2022-11-23T03:12:03.362Z,977.75
2022-11-23T03:13:03.395Z,977.84
2022-11-23T03:14:03.440Z,977.75
2022-11-23T03:15:03.413Z,977.75
2022-11-23T03:16:03.382Z,977.76
2022-11-23T03:17:03.441Z,977.78
2022-11-23T03:18:03.423Z,977.78
2022-11-23T03:19:03.474Z,977.76
2022-11-23T03:20:03.474Z,977.85
2022-11-23T03:21:03.495Z,977.83
2022-11-23T03:22:03.492Z,977.86
2022-11-23T03:23:03.474Z,977.80
2022-11-23T03:24:03.525Z,977.89
2022-11-23T03:25:03.512Z,977.80
2022-11-23T03:26:07.259Z,977.85
2022-11-23T03:27:03.534Z,977.86
2022-11-23T03:28:03.550Z,977.87
2022-11-23T03:29:03.555Z,977.87
2022-11-23T03:30:03.553Z,977.80
2022-11-23T03:31:03.544Z,977.77
2022-11-23T03:32:03.544Z,977.78
2022-11-23T03:33:03.540Z,977.72
2022-11-23T03:34:03.565Z,977.79
2022-11-23T03:35:03.520Z,977.77
2022-11-23T03:36:03.544Z,977.80
2022-11-23T03:37:03.544Z,977.80
2022-11-23T03:38:03.557Z,977.83
2022-11-23T03:39:03.551Z,977.83
2022-11-23T03:40:03.558Z,977.84
2022-11-23T03:41:03.528Z,977.81
2022-11-23T03:42:03.572Z,977.80
2022-11-23T03:43:03.555Z,977.88
2022-11-23T03:44:03.531Z,977.85
2022-11-23T03:45:03.566Z,977.86
2022-11-23T03:46:03.561Z,977.89
2022-11-23T03:47:03.535Z,977.81
2022-11-23T03:48:03.537Z,977.86
2022-11-23T03:49:03.559Z,977.82
2022-11-23T03:50:03.584Z,977.79
2022-11-23T03:51:03.554Z,977.74
2022-11-23T03:52:03.557Z,977.77
2022-11-23T03:53:03.573Z,977.79
2022-11-23T03:54:03.548Z,977.78
2022-11-23T03:55:03.579Z,977.77
2022-11-23T03:56:03.571Z,977.83
2022-11-23T03:57:03.578Z,977.76
2022-11-23T03:58:03.575Z,977.79
2022-11-23T03:59:03.558Z,977.80
2022-11-23T04:00:03.575Z,977.72
2022-11-23T04:01:03.755Z,977.78
2022-11-23T04:02:03.568Z,977.83
2022-11-23T04:03:03.595Z,977.72
2022-11-23T04:04:03.580Z,977.80
2022-11-23T04:05:03.584Z,977.84
2022-11-23T04:06:03.603Z,977.88
2022-11-23T04:07:03.623Z,977.84
2022-11-23T04:08:03.597Z,977.87
2022-11-23T04:09:03.563Z,977.89
2022-11-23T04:10:03.567Z,977.90
2022-11-23T04:11:03.582Z,977.81
2022-11-23T04:12:03.554Z,977.82
2022-11-23T04:13:03.583Z,977.91
2022-11-23T04:14:03.581Z,977.88
2022-11-23T04:15:03.582Z,977.91
2022-11-23T04:16:03.624Z,977.92
2022-11-23T04:17:03.594Z,977.85
2022-11-23T04:18:03.612Z,977.88
2022-11-23T04:19:03.592Z,977.85
2022-11-23T04:20:03.581Z,977.84
2022-11-23T04:21:03.593Z,977.87
2022-11-23T04:22:03.587Z,977.84
2022-11-23T04:23:03.585Z,977.89
2022-11-23T04:24:03.608Z,977.79
2022-11-23T04:25:03.592Z,977.79
2022-11-23T04:26:03.596Z,977.79
2022-11-23T04:27:03.611Z,977.79
2022-11-23T04:28:03.604Z,977.79
2022-11-23T04:29:03.606Z,977.74
2022-11-23T04:30:03.601Z,977.81
2022-11-23T04:31:03.611Z,977.92
2022-11-23T04:32:03.631Z,977.83
2022-11-23T04:33:03.573Z,977.88
2022-11-23T04:34:03.576Z,977.90
2022-11-23T04:35:03.610Z,977.83
2022-11-23T04:36:03.583Z,977.98
2022-11-23T04:37:03.615Z,977.98
2022-11-23T04:38:03.624Z,977.90
2022-11-23T04:39:03.613Z,977.93
2022-11-23T04:40:03.611Z,977.93
2022-11-23T04:41:03.631Z,977.93
2022-11-23T04:42:03.661Z,977.91
2022-11-23T04:43:03.694Z,977.89
2022-11-23T04:44:03.665Z,977.89
2022-11-23T04:45:03.684Z,977.87
2022-11-23T04:46:03.701Z,977.85
2022-11-23T04:47:03.725Z,977.88
2022-11-23T04:48:03.724Z,977.88
2022-11-23T04:49:03.723Z,977.92
2022-11-23T04:50:03.737Z,977.89
2022-11-23T04:51:03.766Z,977.89
2022-11-23T04:52:03.740Z,977.94
2022-11-23T04:53:03.781Z,977.91
2022-11-23T04:54:03.790Z,977.88
2022-11-23T04:55:03.797Z,977.92
2022-11-23T04:56:03.809Z,977.85
2022-11-23T04:57:03.827Z,977.88
2022-11-23T04:58:03.841Z,977.93
2022-11-23T04:59:03.839Z,977.89
2022-11-23T05:00:03.851Z,977.84
2022-11-23T05:01:03.906Z,977.86
2022-11-23T05:02:03.875Z,977.85
2022-11-23T05:03:03.896Z,977.89
2022-11-23T05:04:03.929Z,977.92
2022-11-23T05:05:03.910Z,977.95
2022-11-23T05:06:03.929Z,977.89
2022-11-23T05:07:04.101Z,977.96
2022-11-23T05:08:03.948Z,977.94
2022-11-23T05:09:03.963Z,977.94
2022-11-23T05:10:03.972Z,977.98
2022-11-23T05:11:03.970Z,977.99
2022-11-23T05:12:03.975Z,978.01
2022-11-23T05:13:04.000Z,977.96
2022-11-23T05:14:04.090Z,977.99
2022-11-23T05:15:04.029Z,977.99
2022-11-23T05:16:04.053Z,977.98
2022-11-23T05:17:04.064Z,977.92
2022-11-23T05:18:04.080Z,977.92
2022-11-23T05:19:04.098Z,977.89
2022-11-23T05:20:04.090Z,977.93
2022-11-23T05:21:04.099Z,977.82
2022-11-23T05:22:04.114Z,977.86
2022-11-23T05:23:04.164Z,977.88
2022-11-23T05:24:04.157Z,978.00
2022-11-23T05:25:04.154Z,977.94
2022-11-23T05:26:04.170Z,977.89
2022-11-23T05:27:04.199Z,977.86
2022-11-23T05:28:23.378Z,977.92
2022-11-23T05:29:04.190Z,977.91
2022-11-23T05:30:04.180Z,977.85
2022-11-23T05:31:04.170Z,977.86
2022-11-23T05:32:04.190Z,977.96
2022-11-23T05:33:04.175Z,977.97
2022-11-23T05:34:04.187Z,977.87
2022-11-23T05:35:04.185Z,977.87
2022-11-23T05:36:04.188Z,977.86
2022-11-23T05:37:04.198Z,977.88
2022-11-23T05:38:04.198Z,977.91
2022-11-23T05:39:04.185Z,977.93
2022-11-23T05:40:04.208Z,977.91
2022-11-23T05:41:04.234Z,977.94
2022-11-23T05:42:04.198Z,977.93
2022-11-23T05:43:04.199Z,977.96
2022-11-23T05:44:04.191Z,977.95
2022-11-23T05:45:08.674Z,977.89
2022-11-23T05:46:04.209Z,977.98
2022-11-23T05:47:04.198Z,977.97
2022-11-23T05:48:04.213Z,977.97
2022-11-23T05:49:04.214Z,977.98
2022-11-23T05:50:04.223Z,977.90
2022-11-23T05:51:05.599Z,978.02
2022-11-23T05:52:04.205Z,977.92
2022-11-23T05:53:04.201Z,977.92
2022-11-23T05:54:04.207Z,978.02
2022-11-23T05:55:04.232Z,978.07
2022-11-23T05:56:04.209Z,978.01
2022-11-23T05:57:04.218Z,978.01
2022-11-23T05:58:04.210Z,978.01
2022-11-23T05:59:04.227Z,978.01
2022-11-23T06:00:04.216Z,978.01
2022-11-23T06:01:04.258Z,978.00
2022-11-23T06:02:04.214Z,978.05
2022-11-23T06:03:04.225Z,977.98
2022-11-23T06:04:04.289Z,978.01
2022-11-23T06:05:04.212Z,978.04
2022-11-23T06:06:04.234Z,978.01
2022-11-23T06:07:04.331Z,978.01
2022-11-23T06:08:04.214Z,978.01
2022-11-23T06:09:04.223Z,978.08
2022-11-23T06:10:04.227Z,977.96
2022-11-23T06:11:04.240Z,977.94
2022-11-23T06:12:04.250Z,977.98
2022-11-23T06:13:04.228Z,977.99
2022-11-23T06:14:04.591Z,978.03
2022-11-23T06:15:04.224Z,978.00
2022-11-23T06:16:04.249Z,977.98
2022-11-23T06:17:04.259Z,978.02
2022-11-23T06:18:04.234Z,978.03
2022-11-23T06:19:04.233Z,978.06
2022-11-23T06:20:04.224Z,978.03
2022-11-23T06:21:04.235Z,977.94
2022-11-23T06:22:04.239Z,978.00
2022-11-23T06:23:04.233Z,978.01
2022-11-23T06:24:04.240Z,977.96
2022-11-23T06:25:04.239Z,978.00
2022-11-23T06:26:04.261Z,978.04
2022-11-23T06:27:04.236Z,978.04
2022-11-23T06:28:04.233Z,978.01
2022-11-23T06:29:04.235Z,978.01
2022-11-23T06:30:04.242Z,978.05
2022-11-23T06:31:04.266Z,978.04
2022-11-23T06:32:04.245Z,978.00
2022-11-23T06:33:04.240Z,978.14
2022-11-23T06:34:04.256Z,978.03
2022-11-23T06:35:04.246Z,978.03
2022-11-23T06:36:04.267Z,978.07
2022-11-23T06:37:04.251Z,978.09
2022-11-23T06:38:04.247Z,977.98
2022-11-23T06:39:04.253Z,978.06
2022-11-23T06:40:04.273Z,978.06
2022-11-23T06:41:04.266Z,978.08
2022-11-23T06:42:23.812Z,978.06
2022-11-23T06:43:04.246Z,977.97
2022-11-23T06:44:04.267Z,978.05
2022-11-23T06:45:04.257Z,977.98
2022-11-23T06:46:04.279Z,978.10
2022-11-23T06:47:04.274Z,978.11
2022-11-23T06:48:04.252Z,978.17
2022-11-23T06:49:04.273Z,978.13
2022-11-23T06:50:04.333Z,978.20
2022-11-23T06:51:04.248Z,978.23
2022-11-23T06:52:04.321Z,978.27
2022-11-23T06:53:04.265Z,978.26
2022-11-23T06:54:04.269Z,978.21
2022-11-23T06:55:04.279Z,978.28
2022-11-23T06:56:04.259Z,978.27
2022-11-23T06:57:04.321Z,978.24
2022-11-23T06:58:04.260Z,978.24
2022-11-23T06:59:04.278Z,978.25
2022-11-23T07:00:04.275Z,978.21
2022-11-23T07:01:04.348Z,978.19
2022-11-23T07:02:04.290Z,978.26
2022-11-23T07:03:04.265Z,978.20
2022-11-23T07:04:04.305Z,978.28
2022-11-23T07:05:04.299Z,978.28
2022-11-23T07:06:04.424Z,978.26
2022-11-23T07:07:04.413Z,978.27
2022-11-23T07:08:04.329Z,978.39
2022-11-23T07:09:04.293Z,978.36
2022-11-23T07:10:07.196Z,978.35
2022-11-23T07:11:04.278Z,978.38
2022-11-23T07:12:04.303Z,978.31
2022-11-23T07:13:04.290Z,978.33
2022-11-23T07:14:04.318Z,978.30
2022-11-23T07:15:04.288Z,978.38
2022-11-23T07:16:04.298Z,978.33
2022-11-23T07:17:04.296Z,978.34
2022-11-23T07:18:04.306Z,978.30
2022-11-23T07:19:04.286Z,978.37
2022-11-23T07:20:04.309Z,978.30
2022-11-23T07:21:04.288Z,978.32
2022-11-23T07:22:04.275Z,978.30
2022-11-23T07:23:04.282Z,978.37
2022-11-23T07:24:04.304Z,978.42
2022-11-23T07:25:04.306Z,978.43
2022-11-23T07:26:04.292Z,978.35
2022-11-23T07:27:04.289Z,978.41
2022-11-23T07:28:04.297Z,978.36
2022-11-23T07:29:04.298Z,978.32
2022-11-23T07:30:04.308Z,978.33
2022-11-23T07:31:04.293Z,978.33
2022-11-23T07:32:04.296Z,978.36
2022-11-23T07:33:04.295Z,978.41
2022-11-23T07:34:04.305Z,978.45
2022-11-23T07:35:04.329Z,978.45
2022-11-23T07:36:04.306Z,978.40
2022-11-23T07:37:04.304Z,978.51
2022-11-23T07:38:26.145Z,978.41
2022-11-23T07:39:48.825Z,978.42
2022-11-23T07:40:26.173Z,978.41
2022-11-23T07:41:26.148Z,978.41
2022-11-23T07:42:35.752Z,978.48
2022-11-23T07:43:26.143Z,978.42
2022-11-23T07:44:26.129Z,978.42
2022-11-23T07:45:26.135Z,978.39
2022-11-23T07:46:26.132Z,978.48
2022-11-23T07:47:26.156Z,978.47
2022-11-23T07:48:26.150Z,978.48
2022-11-23T07:49:26.129Z,978.50
2022-11-23T07:50:26.223Z,978.48
2022-11-23T07:51:26.135Z,978.50
2022-11-23T07:52:26.151Z,978.61
2022-11-23T07:53:26.191Z,978.60
2022-11-23T07:54:26.143Z,978.54
2022-11-23T07:55:26.139Z,978.52
2022-11-23T07:56:26.161Z,978.66
2022-11-23T07:57:26.148Z,978.60
2022-11-23T07:58:26.177Z,978.60
2022-11-23T07:59:26.171Z,978.66
2022-11-23T08:00:26.270Z,978.56
2022-11-23T08:01:26.155Z,978.59
2022-11-23T08:02:26.251Z,978.62
2022-11-23T08:03:28.157Z,978.62
2022-11-23T08:04:26.169Z,978.65
2022-11-23T08:05:26.158Z,978.68
2022-11-23T08:06:26.153Z,978.67
2022-11-23T08:07:26.193Z,978.65
2022-11-23T08:08:26.182Z,978.70
2022-11-23T08:09:26.182Z,978.62
2022-11-23T08:10:26.184Z,978.63
2022-11-23T08:11:26.159Z,978.65
2022-11-23T08:12:26.157Z,978.63
2022-11-23T08:13:26.153Z,978.56
2022-11-23T08:14:26.181Z,978.64
2022-11-23T08:15:26.292Z,978.67
2022-11-23T08:16:26.329Z,978.60
2022-11-23T08:17:26.336Z,978.65
2022-11-23T08:18:26.322Z,978.60
2022-11-23T08:19:26.358Z,978.71
2022-11-23T08:20:26.389Z,978.65
2022-11-23T08:21:26.357Z,978.61
2022-11-23T08:22:26.393Z,978.66
2022-11-23T08:23:26.408Z,978.69
2022-11-23T08:24:26.414Z,978.63
2022-11-23T08:25:26.437Z,978.63
2022-11-23T08:26:26.441Z,978.66
2022-11-23T08:27:26.458Z,978.63
2022-11-23T08:28:26.486Z,978.62
2022-11-23T08:29:26.486Z,978.61
2022-11-23T08:30:26.502Z,978.67
2022-11-23T08:31:26.497Z,978.66
2022-11-23T08:32:26.512Z,978.71
2022-11-23T08:33:26.537Z,978.75
2022-11-23T08:34:26.524Z,978.77
2022-11-23T08:35:26.541Z,978.77
2022-11-23T08:36:26.588Z,978.75
2022-11-23T08:37:26.535Z,978.76
2022-11-23T08:38:26.547Z,978.79
2022-11-23T08:39:26.534Z,978.82
2022-11-23T08:40:26.645Z,978.84
2022-11-23T08:41:26.506Z,978.83
2022-11-23T08:42:26.548Z,978.86
2022-11-23T08:43:26.538Z,978.81
2022-11-23T08:44:26.540Z,978.80
2022-11-23T08:45:26.562Z,978.80
2022-11-23T08:46:26.555Z,978.85
2022-11-23T08:47:26.534Z,978.92
2022-11-23T08:48:26.545Z,978.94
2022-11-23T08:49:26.541Z,978.87
2022-11-23T08:50:26.572Z,978.87
2022-11-23T08:51:26.524Z,978.86
2022-11-23T08:52:26.544Z,978.77
2022-11-23T08:53:26.530Z,978.77
2022-11-23T08:54:26.559Z,978.75
2022-11-23T08:55:26.596Z,978.82
2022-11-23T08:56:26.584Z,978.84
2022-11-23T08:57:26.574Z,978.80
2022-11-23T08:58:26.625Z,978.87
2022-11-23T08:59:26.599Z,978.84
2022-11-23T09:00:26.624Z,978.84
2022-11-23T09:01:26.731Z,978.81
2022-11-23T09:02:26.635Z,978.75
2022-11-23T09:03:26.641Z,978.83
2022-11-23T09:04:26.663Z,978.91
2022-11-23T09:05:26.670Z,978.86
2022-11-23T09:06:26.705Z,978.78
2022-11-23T09:07:26.755Z,978.83
2022-11-23T09:08:26.714Z,978.84
2022-11-23T09:09:26.719Z,978.87
2022-11-23T09:10:26.740Z,978.93
2022-11-23T09:11:26.761Z,978.87
2022-11-23T09:12:26.761Z,978.84
2022-11-23T09:13:26.766Z,978.84
2022-11-23T09:14:26.769Z,978.77
2022-11-23T09:15:26.795Z,978.83
2022-11-23T09:16:32.410Z,978.70
2022-11-23T09:17:26.833Z,978.68
2022-11-23T09:18:26.804Z,978.69
2022-11-23T09:19:26.803Z,978.63
2022-11-23T09:20:26.804Z,978.65
2022-11-23T09:21:26.855Z,978.69
2022-11-23T09:22:26.811Z,978.58
2022-11-23T09:23:26.791Z,978.67
2022-11-23T09:24:26.867Z,978.68
2022-11-23T09:25:26.835Z,978.64
2022-11-23T09:26:26.826Z,978.69
2022-11-23T09:27:26.832Z,978.66
2022-11-23T09:28:26.815Z,978.60
2022-11-23T09:29:26.816Z,978.60
2022-11-23T09:30:26.828Z,978.62
2022-11-23T09:31:26.863Z,978.60
2022-11-23T09:32:26.833Z,978.65
2022-11-23T09:33:26.858Z,978.70
2022-11-23T09:34:26.816Z,978.62
2022-11-23T09:35:26.825Z,978.64
2022-11-23T09:36:26.854Z,978.75
2022-11-23T09:37:26.834Z,978.76
2022-11-23T09:38:44.737Z,978.71
2022-11-23T09:39:26.830Z,978.70
2022-11-23T09:40:26.825Z,978.74
2022-11-23T09:41:26.820Z,978.72
2022-11-23T09:42:26.841Z,978.85
2022-11-23T09:43:26.831Z,978.80
2022-11-23T09:44:26.827Z,978.86
2022-11-23T09:45:26.846Z,978.86
2022-11-23T09:46:26.840Z,978.84
2022-11-23T09:47:26.846Z,978.89
2022-11-23T09:48:26.851Z,978.90
2022-11-23T09:49:26.833Z,978.83
2022-11-23T09:50:26.846Z,978.89
2022-11-23T09:51:26.852Z,978.86
2022-11-23T09:52:26.856Z,978.90
2022-11-23T09:53:26.866Z,978.94
2022-11-23T09:54:26.848Z,978.85
2022-11-23T09:55:26.850Z,978.78
2022-11-23T09:56:26.851Z,978.88
2022-11-23T09:57:26.850Z,978.86
2022-11-23T09:58:26.864Z,978.92
2022-11-23T09:59:26.836Z,978.92
2022-11-23T10:00:26.864Z,978.89
2022-11-23T10:01:26.853Z,978.89
2022-11-23T10:02:26.853Z,978.97
2022-11-23T10:03:26.857Z,978.91
2022-11-23T10:04:26.848Z,978.86
2022-11-23T10:05:26.869Z,978.88
2022-11-23T10:06:26.875Z,978.85
2022-11-23T10:07:26.911Z,978.81
2022-11-23T10:08:26.850Z,978.77
2022-11-23T10:09:26.894Z,978.76
2022-11-23T10:10:26.854Z,978.81
2022-11-23T10:11:26.856Z,978.68
2022-11-23T10:12:26.864Z,978.72
2022-11-23T10:13:26.865Z,978.66
2022-11-23T10:14:26.885Z,978.70
2022-11-23T10:15:26.866Z,978.70
2022-11-23T10:16:26.866Z,978.64
2022-11-23T10:17:26.865Z,978.62
2022-11-23T10:18:26.860Z,978.64
2022-11-23T10:19:26.861Z,978.61
2022-11-23T10:20:26.873Z,978.63
2022-11-23T10:21:26.881Z,978.58
2022-11-23T10:22:26.875Z,978.65
2022-11-23T10:23:26.893Z,978.62
2022-11-23T10:24:26.928Z,978.66
2022-11-23T10:25:26.945Z,978.57
2022-11-23T10:26:26.927Z,978.60
2022-11-23T10:27:26.940Z,978.56
2022-11-23T10:28:26.953Z,978.57
2022-11-23T10:29:27.021Z,978.55
2022-11-23T10:30:27.001Z,978.51
2022-11-23T10:31:26.995Z,978.70
2022-11-23T10:32:27.355Z,978.65
2022-11-23T10:33:27.008Z,978.61
2022-11-23T10:34:27.025Z,978.57
2022-11-23T10:35:27.091Z,978.59
2022-11-23T10:36:27.059Z,978.50
2022-11-23T10:37:27.067Z,978.63
2022-11-23T10:38:27.092Z,978.62
2022-11-23T10:39:27.079Z,978.59
2022-11-23T10:40:27.115Z,978.61
2022-11-23T10:41:27.113Z,978.57
2022-11-23T10:42:27.134Z,978.55
2022-11-23T10:43:27.135Z,978.59
2022-11-23T10:44:27.129Z,978.64
2022-11-23T10:45:27.185Z,978.58
2022-11-23T10:46:27.238Z,978.56
2022-11-23T10:47:27.180Z,978.64
2022-11-23T10:48:27.184Z,978.55
2022-11-23T10:49:27.206Z,978.54
2022-11-23T10:50:27.246Z,978.59
2022-11-23T10:51:27.257Z,978.62
2022-11-23T10:52:27.264Z,978.62
2022-11-23T10:53:27.271Z,978.59
2022-11-23T10:54:27.301Z,978.65
2022-11-23T10:55:27.300Z,978.63
2022-11-23T10:56:27.322Z,978.62
2022-11-23T10:57:27.307Z,978.69
2022-11-23T10:58:27.354Z,978.69
2022-11-23T10:59:27.350Z,978.68
2022-11-23T11:00:30.515Z,978.70
2022-11-23T11:01:27.361Z,978.66
2022-11-23T11:02:27.360Z,978.56
2022-11-23T11:03:27.361Z,978.66
2022-11-23T11:04:29.953Z,978.59
2022-11-23T11:05:53.578Z,978.61
2022-11-23T11:06:27.419Z,978.62
2022-11-23T11:07:27.482Z,978.49
2022-11-23T11:08:27.431Z,978.53
2022-11-23T11:09:27.439Z,978.49
2022-11-23T11:10:27.410Z,978.54
2022-11-23T11:11:27.394Z,978.43
2022-11-23T11:12:27.429Z,978.44
2022-11-23T11:13:27.413Z,978.42
2022-11-23T11:14:27.420Z,978.39
2022-11-23T11:15:27.425Z,978.39
2022-11-23T11:16:27.446Z,978.35
2022-11-23T11:17:27.416Z,978.30
2022-11-23T11:18:27.410Z,978.33
2022-11-23T11:19:27.426Z,978.33
2022-11-23T11:20:27.555Z,978.34
2022-11-23T11:21:27.445Z,978.30
2022-11-23T11:22:27.424Z,978.37
2022-11-23T11:23:27.416Z,978.26
2022-11-23T11:24:27.446Z,978.23
2022-11-23T11:25:27.442Z,978.20
2022-11-23T11:26:27.435Z,978.28
2022-11-23T11:27:27.447Z,978.31
2022-11-23T11:28:27.439Z,978.26
2022-11-23T11:29:27.447Z,978.25
2022-11-23T11:30:27.440Z,978.21
2022-11-23T11:31:27.456Z,978.22
2022-11-23T11:32:27.448Z,978.21
2022-11-23T11:33:29.718Z,978.18
2022-11-23T11:34:27.463Z,978.04
2022-11-23T11:35:27.453Z,978.13
2022-11-23T11:36:27.451Z,978.11
2022-11-23T11:37:27.429Z,978.10
2022-11-23T11:38:27.462Z,978.03
2022-11-23T11:39:27.447Z,978.05
2022-11-23T11:40:27.444Z,978.08
2022-11-23T11:41:27.464Z,977.97
2022-11-23T11:42:27.482Z,978.03
2022-11-23T11:43:34.684Z,977.98
2022-11-23T11:44:27.463Z,978.01
2022-11-23T11:45:27.456Z,977.95
2022-11-23T11:46:29.647Z,977.96
2022-11-23T11:47:27.482Z,977.93
2022-11-23T11:48:27.495Z,977.85
2022-11-23T11:49:27.520Z,977.91
2022-11-23T11:50:31.616Z,977.95
2022-11-23T11:51:27.531Z,977.90
2022-11-23T11:52:27.562Z,977.83
2022-11-23T11:53:27.521Z,977.83
2022-11-23T11:54:27.514Z,977.81
2022-11-23T11:55:27.556Z,977.77
2022-11-23T11:56:27.560Z,977.82
2022-11-23T11:57:27.549Z,977.79
2022-11-23T11:58:27.532Z,977.74
2022-11-23T11:59:27.545Z,977.80
2022-11-23T12:00:27.561Z,977.76
2022-11-23T12:01:27.558Z,977.76
2022-11-23T12:02:27.595Z,977.66
2022-11-23T12:03:27.545Z,977.71
2022-11-23T12:04:27.545Z,977.68
2022-11-23T12:05:27.556Z,977.73
2022-11-23T12:06:27.562Z,977.62
2022-11-23T12:07:27.585Z,977.62
2022-11-23T12:08:27.542Z,977.62
2022-11-23T12:09:27.563Z,977.59
2022-11-23T12:10:27.569Z,977.57
2022-11-23T12:11:27.521Z,977.53
2022-11-23T12:12:29.901Z,977.53
2022-11-23T12:13:27.552Z,977.53
2022-11-23T12:14:27.562Z,977.54
2022-11-23T12:15:48.428Z,977.57
2022-11-23T12:16:27.582Z,977.55
2022-11-23T12:18:27.552Z,977.54
2022-11-23T12:19:27.551Z,977.54
2022-11-23T12:20:27.544Z,977.51
2022-11-23T12:21:01.353Z,977.57
2022-11-23T12:21:27.610Z,977.51
2022-11-23T12:22:27.566Z,977.46
2022-11-23T12:23:27.565Z,977.52
2022-11-23T12:24:27.561Z,977.53
2022-11-23T12:25:27.554Z,977.52
2022-11-23T12:26:27.574Z,977.51
2022-11-23T12:27:27.590Z,977.53
2022-11-23T12:28:27.561Z,977.53
2022-11-23T12:29:27.565Z,977.53